Hauptseite
METAR-TAF:

METAR-TAF

Flughäfen :

Ocean County, New Jersey, Vereinigte Staaten

Breite: 39-55-39N, Länge: 074-17-33W, Höhe: 25 m

Beobachtung

Neuester Wetterbericht von vor 1 Stunde und 3 Minuten, um 08:56 UTC
Windstille
Temperatur 14°C
Luftfeuchtigkeit 100%
Luftdruck 1024 hPa
Sichtweite: 0.4 km
Geschlossene Wolkendecke in der Höhe von 200 ft
Nebel

METAR: KMJX 270856Z AUTO 00000KT 1/4SM FG OVC002 14/14 A3023 RMK AO2 RAB29E46 SLP239 P0000 60000 T01440144 52002

Zeit: 05:59 (09:59 UTC)


TAF: fehlend

Wetterbeobachtungen und Prognosen von mehr als 4000 Flughäfen (METAR und TAF Bericht).

Die verfügbaren Stationen werden durch gelbe und rote Markierungen auf der Karte dargestellt.

Führen Sie die Maus auf sie, um den Namen der Station zu sehen.

Darauf klicken, um die Beobachtung von Wetterbeobachtungen und Prognosen zu sehen.

Um die Karte zu ändern : klicken Sie auf den grünen Tasten mit einem schwarzen Kreuz Zum Vergrößern, auf den grünen Button mit einem Gedankenstrich zu verkleinern, oder auf die grünen Pfeile für benachbarte Karten.


METAR-TAF: